sensor_id;sensor_type;location;lat;lon;timestamp;temperature;humidity
480;DHT22;226;48.606;9.096;2022-12-29T00:01:08;3.80;59.60
480;DHT22;226;48.606;9.096;2022-12-29T00:03:37;4.20;60.20
480;DHT22;226;48.606;9.096;2022-12-29T00:06:06;5.50;62.20
480;DHT22;226;48.606;9.096;2022-12-29T00:08:35;4.00;59.60
480;DHT22;226;48.606;9.096;2022-12-29T00:11:13;4.30;60.00
480;DHT22;226;48.606;9.096;2022-12-29T00:13:41;4.30;59.70
480;DHT22;226;48.606;9.096;2022-12-29T00:16:28;4.20;59.60
480;DHT22;226;48.606;9.096;2022-12-29T00:18:57;4.10;58.50
480;DHT22;226;48.606;9.096;2022-12-29T00:21:27;4.10;56.10
480;DHT22;226;48.606;9.096;2022-12-29T00:24:15;4.00;56.80
480;DHT22;226;48.606;9.096;2022-12-29T00:27:11;4.30;58.70
480;DHT22;226;48.606;9.096;2022-12-29T00:29:57;4.10;59.20
480;DHT22;226;48.606;9.096;2022-12-29T00:32:43;4.10;59.30
480;DHT22;226;48.606;9.096;2022-12-29T00:35:30;4.10;59.40
480;DHT22;226;48.606;9.096;2022-12-29T00:38:03;4.10;58.90
480;DHT22;226;48.606;9.096;2022-12-29T00:40:50;4.20;59.30
480;DHT22;226;48.606;9.096;2022-12-29T00:43:41;4.10;59.80
480;DHT22;226;48.606;9.096;2022-12-29T00:46:26;4.10;59.70
480;DHT22;226;48.606;9.096;2022-12-29T00:48:55;4.10;60.20
480;DHT22;226;48.606;9.096;2022-12-29T00:51:40;3.70;59.90
480;DHT22;226;48.606;9.096;2022-12-29T00:54:10;4.20;62.30
480;DHT22;226;48.606;9.096;2022-12-29T00:56:39;5.40;62.30
480;DHT22;226;48.606;9.096;2022-12-29T00:59:09;3.60;59.30
480;DHT22;226;48.606;9.096;2022-12-29T01:01:38;4.50;60.00
480;DHT22;226;48.606;9.096;2022-12-29T01:04:07;4.80;60.30
480;DHT22;226;48.606;9.096;2022-12-29T01:06:36;6.10;64.50
480;DHT22;226;48.606;9.096;2022-12-29T01:09:05;5.50;61.10
480;DHT22;226;48.606;9.096;2022-12-29T01:11:52;4.00;58.30
480;DHT22;226;48.606;9.096;2022-12-29T01:14:21;5.60;60.20
480;DHT22;226;48.606;9.096;2022-12-29T01:16:50;6.30;56.40
480;DHT22;226;48.606;9.096;2022-12-29T01:19:18;6.80;50.70
480;DHT22;226;48.606;9.096;2022-12-29T01:21:47;6.50;44.80
480;DHT22;226;48.606;9.096;2022-12-29T01:24:16;6.90;43.10
480;DHT22;226;48.606;9.096;2022-12-29T01:26:45;7.20;39.30
480;DHT22;226;48.606;9.096;2022-12-29T01:29:15;7.40;38.00
480;DHT22;226;48.606;9.096;2022-12-29T01:31:44;7.70;36.70
480;DHT22;226;48.606;9.096;2022-12-29T01:34:12;7.90;33.50
480;DHT22;226;48.606;9.096;2022-12-29T01:36:41;8.00;33.70
480;DHT22;226;48.606;9.096;2022-12-29T01:39:10;8.30;32.20
480;DHT22;226;48.606;9.096;2022-12-29T01:41:38;9.10;31.50
480;DHT22;226;48.606;9.096;2022-12-29T01:47:14;8.60;29.60
480;DHT22;226;48.606;9.096;2022-12-29T01:49:44;8.60;28.50
480;DHT22;226;48.606;9.096;2022-12-29T01:52:12;8.70;29.30
480;DHT22;226;48.606;9.096;2022-12-29T01:54:45;8.90;31.70
480;DHT22;226;48.606;9.096;2022-12-29T01:57:19;8.90;27.70
480;DHT22;226;48.606;9.096;2022-12-29T01:59:52;10.00;26.30
480;DHT22;226;48.606;9.096;2022-12-29T02:02:23;9.30;26.80
480;DHT22;226;48.606;9.096;2022-12-29T02:04:52;9.70;27.40
480;DHT22;226;48.606;9.096;2022-12-29T02:07:29;9.10;26.40
480;DHT22;226;48.606;9.096;2022-12-29T02:10:00;9.00;26.50
480;DHT22;226;48.606;9.096;2022-12-29T02:12:28;9.10;26.60
480;DHT22;226;48.606;9.096;2022-12-29T02:14:59;9.10;25.50
480;DHT22;226;48.606;9.096;2022-12-29T02:17:41;9.20;26.00
480;DHT22;226;48.606;9.096;2022-12-29T02:23:36;9.30;24.60
480;DHT22;226;48.606;9.096;2022-12-29T02:26:29;9.20;25.50
480;DHT22;226;48.606;9.096;2022-12-29T02:32:18;9.30;24.60
480;DHT22;226;48.606;9.096;2022-12-29T02:34:56;9.30;25.50
480;DHT22;226;48.606;9.096;2022-12-29T02:37:30;9.20;25.10
480;DHT22;226;48.606;9.096;2022-12-29T02:40:06;9.30;24.90
480;DHT22;226;48.606;9.096;2022-12-29T02:42:39;9.80;24.40
480;DHT22;226;48.606;9.096;2022-12-29T02:45:15;9.00;24.70
480;DHT22;226;48.606;9.096;2022-12-29T02:47:49;9.30;24.50
480;DHT22;226;48.606;9.096;2022-12-29T02:50:22;9.30;24.30
480;DHT22;226;48.606;9.096;2022-12-29T02:52:54;9.40;24.40
480;DHT22;226;48.606;9.096;2022-12-29T02:55:24;9.40;24.00
480;DHT22;226;48.606;9.096;2022-12-29T02:58:13;10.00;23.80
480;DHT22;226;48.606;9.096;2022-12-29T03:00:51;9.50;23.80
480;DHT22;226;48.606;9.096;2022-12-29T03:03:33;9.60;22.80
480;DHT22;226;48.606;9.096;2022-12-29T03:06:17;9.40;23.70
480;DHT22;226;48.606;9.096;2022-12-29T03:08:54;9.20;23.50
480;DHT22;226;48.606;9.096;2022-12-29T03:11:29;9.80;24.20
480;DHT22;226;48.606;9.096;2022-12-29T03:14:27;9.90;24.50
480;DHT22;226;48.606;9.096;2022-12-29T03:17:22;9.40;24.90
480;DHT22;226;48.606;9.096;2022-12-29T03:20:01;9.60;23.80
480;DHT22;226;48.606;9.096;2022-12-29T03:22:34;9.70;23.70
480;DHT22;226;48.606;9.096;2022-12-29T03:25:08;10.30;22.30
480;DHT22;226;48.606;9.096;2022-12-29T03:27:41;9.80;22.10
480;DHT22;226;48.606;9.096;2022-12-29T03:30:10;9.90;23.10
480;DHT22;226;48.606;9.096;2022-12-29T03:32:42;9.80;23.40
480;DHT22;226;48.606;9.096;2022-12-29T03:35:15;10.50;21.70
480;DHT22;226;48.606;9.096;2022-12-29T03:37:49;10.10;22.80
480;DHT22;226;48.606;9.096;2022-12-29T03:40:21;10.50;22.20
480;DHT22;226;48.606;9.096;2022-12-29T03:42:51;10.00;22.50
480;DHT22;226;48.606;9.096;2022-12-29T03:45:20;10.00;22.70
480;DHT22;226;48.606;9.096;2022-12-29T03:47:49;10.20;23.30
480;DHT22;226;48.606;9.096;2022-12-29T03:50:18;10.40;22.90
480;DHT22;226;48.606;9.096;2022-12-29T03:52:47;10.10;21.90
480;DHT22;226;48.606;9.096;2022-12-29T03:55:15;10.20;22.10
480;DHT22;226;48.606;9.096;2022-12-29T03:57:44;10.60;22.30
480;DHT22;226;48.606;9.096;2022-12-29T04:00:13;10.50;23.00
480;DHT22;226;48.606;9.096;2022-12-29T04:02:44;10.10;22.50
480;DHT22;226;48.606;9.096;2022-12-29T04:05:12;10.00;24.60
480;DHT22;226;48.606;9.096;2022-12-29T04:07:42;10.10;22.60
480;DHT22;226;48.606;9.096;2022-12-29T04:10:10;10.40;23.90
480;DHT22;226;48.606;9.096;2022-12-29T04:12:39;10.10;23.90
480;DHT22;226;48.606;9.096;2022-12-29T04:15:09;9.80;24.10
480;DHT22;226;48.606;9.096;2022-12-29T04:17:37;9.90;23.90
480;DHT22;226;48.606;9.096;2022-12-29T04:20:06;9.90;24.40
480;DHT22;226;48.606;9.096;2022-12-29T04:22:59;9.90;23.40
480;DHT22;226;48.606;9.096;2022-12-29T04:25:27;9.90;23.10
480;DHT22;226;48.606;9.096;2022-12-29T04:27:55;10.40;23.60
480;DHT22;226;48.606;9.096;2022-12-29T04:30:24;9.80;24.20
480;DHT22;226;48.606;9.096;2022-12-29T04:32:52;9.90;25.20
480;DHT22;226;48.606;9.096;2022-12-29T04:35:20;9.90;24.20
480;DHT22;226;48.606;9.096;2022-12-29T04:37:48;9.80;24.20
480;DHT22;226;48.606;9.096;2022-12-29T04:40:18;9.80;24.40
480;DHT22;226;48.606;9.096;2022-12-29T04:42:46;10.50;23.80
480;DHT22;226;48.606;9.096;2022-12-29T04:45:14;9.80;24.10
480;DHT22;226;48.606;9.096;2022-12-29T04:47:43;9.70;23.70
480;DHT22;226;48.606;9.096;2022-12-29T04:50:11;9.70;23.60
480;DHT22;226;48.606;9.096;2022-12-29T04:52:39;9.70;23.10
480;DHT22;226;48.606;9.096;2022-12-29T04:55:08;9.60;23.80
480;DHT22;226;48.606;9.096;2022-12-29T04:57:38;10.10;23.60
480;DHT22;226;48.606;9.096;2022-12-29T05:00:07;10.00;23.40
480;DHT22;226;48.606;9.096;2022-12-29T05:02:36;9.60;24.60
480;DHT22;226;48.606;9.096;2022-12-29T05:05:05;9.80;24.40
480;DHT22;226;48.606;9.096;2022-12-29T05:07:34;9.50;23.10
480;DHT22;226;48.606;9.096;2022-12-29T05:10:02;9.50;23.20
480;DHT22;226;48.606;9.096;2022-12-29T05:12:31;9.60;22.50
480;DHT22;226;48.606;9.096;2022-12-29T05:15:01;9.50;22.80
480;DHT22;226;48.606;9.096;2022-12-29T05:17:30;9.60;22.90
480;DHT22;226;48.606;9.096;2022-12-29T05:19:58;9.60;23.10
480;DHT22;226;48.606;9.096;2022-12-29T05:22:26;9.50;23.10
480;DHT22;226;48.606;9.096;2022-12-29T05:24:54;9.50;23.40
480;DHT22;226;48.606;9.096;2022-12-29T05:27:23;9.40;24.00
480;DHT22;226;48.606;9.096;2022-12-29T05:29:51;9.80;24.90
480;DHT22;226;48.606;9.096;2022-12-29T05:32:20;9.20;24.10
480;DHT22;226;48.606;9.096;2022-12-29T05:34:48;9.20;24.10
480;DHT22;226;48.606;9.096;2022-12-29T05:37:17;9.10;24.60
480;DHT22;226;48.606;9.096;2022-12-29T05:39:45;9.00;24.60
480;DHT22;226;48.606;9.096;2022-12-29T05:42:13;9.00;24.70
480;DHT22;226;48.606;9.096;2022-12-29T05:44:41;9.00;25.00
480;DHT22;226;48.606;9.096;2022-12-29T05:47:09;9.00;25.60
480;DHT22;226;48.606;9.096;2022-12-29T05:49:39;9.00;25.90
480;DHT22;226;48.606;9.096;2022-12-29T05:52:07;8.90;25.40
480;DHT22;226;48.606;9.096;2022-12-29T05:54:35;9.00;25.60
480;DHT22;226;48.606;9.096;2022-12-29T05:57:03;8.70;25.60
480;DHT22;226;48.606;9.096;2022-12-29T05:59:31;9.10;26.10
480;DHT22;226;48.606;9.096;2022-12-29T06:01:59;8.90;26.70
480;DHT22;226;48.606;9.096;2022-12-29T06:04:28;8.80;27.00
480;DHT22;226;48.606;9.096;2022-12-29T06:06:57;8.80;26.80
480;DHT22;226;48.606;9.096;2022-12-29T06:09:25;9.00;26.40
480;DHT22;226;48.606;9.096;2022-12-29T06:11:54;8.70;26.40
480;DHT22;226;48.606;9.096;2022-12-29T06:14:22;9.00;25.80
480;DHT22;226;48.606;9.096;2022-12-29T06:16:50;9.00;25.90
480;DHT22;226;48.606;9.096;2022-12-29T06:19:18;9.10;25.90
480;DHT22;226;48.606;9.096;2022-12-29T06:21:47;8.90;25.70
480;DHT22;226;48.606;9.096;2022-12-29T06:24:16;9.20;25.00
480;DHT22;226;48.606;9.096;2022-12-29T06:26:44;8.70;25.00
480;DHT22;226;48.606;9.096;2022-12-29T06:29:12;9.20;25.70
480;DHT22;226;48.606;9.096;2022-12-29T06:31:44;9.10;25.90
480;DHT22;226;48.606;9.096;2022-12-29T06:34:16;9.80;25.90
480;DHT22;226;48.606;9.096;2022-12-29T06:36:44;9.10;26.00
480;DHT22;226;48.606;9.096;2022-12-29T06:39:12;9.10;26.30
480;DHT22;226;48.606;9.096;2022-12-29T06:41:42;9.10;26.60
480;DHT22;226;48.606;9.096;2022-12-29T06:44:10;9.10;26.10
480;DHT22;226;48.606;9.096;2022-12-29T06:46:38;9.40;26.00
480;DHT22;226;48.606;9.096;2022-12-29T06:49:06;9.60;25.60
480;DHT22;226;48.606;9.096;2022-12-29T06:51:34;9.50;25.10
480;DHT22;226;48.606;9.096;2022-12-29T06:54:02;9.40;25.60
480;DHT22;226;48.606;9.096;2022-12-29T06:56:31;9.30;26.20
480;DHT22;226;48.606;9.096;2022-12-29T06:59:00;9.50;25.60
480;DHT22;226;48.606;9.096;2022-12-29T07:01:28;9.30;25.70
480;DHT22;226;48.606;9.096;2022-12-29T07:03:57;9.30;26.00
480;DHT22;226;48.606;9.096;2022-12-29T07:06:25;9.30;25.60
480;DHT22;226;48.606;9.096;2022-12-29T07:08:53;9.00;26.20
480;DHT22;226;48.606;9.096;2022-12-29T07:11:21;9.20;27.00
480;DHT22;226;48.606;9.096;2022-12-29T07:13:50;9.40;26.20
480;DHT22;226;48.606;9.096;2022-12-29T07:16:19;9.10;26.00
480;DHT22;226;48.606;9.096;2022-12-29T07:18:48;9.30;26.00
480;DHT22;226;48.606;9.096;2022-12-29T07:21:16;9.30;26.10
480;DHT22;226;48.606;9.096;2022-12-29T07:23:45;9.30;29.00
480;DHT22;226;48.606;9.096;2022-12-29T07:26:16;9.70;33.20
480;DHT22;226;48.606;9.096;2022-12-29T07:28:45;9.40;28.70
480;DHT22;226;48.606;9.096;2022-12-29T07:31:15;9.60;29.50
480;DHT22;226;48.606;9.096;2022-12-29T07:33:45;9.40;27.10
480;DHT22;226;48.606;9.096;2022-12-29T07:36:15;9.40;27.00
480;DHT22;226;48.606;9.096;2022-12-29T07:38:44;9.30;26.90
480;DHT22;226;48.606;9.096;2022-12-29T07:41:12;9.50;27.40
480;DHT22;226;48.606;9.096;2022-12-29T07:43:41;9.40;29.20
480;DHT22;226;48.606;9.096;2022-12-29T07:46:09;9.50;26.60
480;DHT22;226;48.606;9.096;2022-12-29T07:48:59;9.50;26.20
480;DHT22;226;48.606;9.096;2022-12-29T07:51:27;9.50;26.40
480;DHT22;226;48.606;9.096;2022-12-29T07:53:55;9.70;25.40
480;DHT22;226;48.606;9.096;2022-12-29T07:56:26;9.90;25.10
480;DHT22;226;48.606;9.096;2022-12-29T07:58:56;9.80;26.00
480;DHT22;226;48.606;9.096;2022-12-29T08:01:31;9.90;25.30
480;DHT22;226;48.606;9.096;2022-12-29T08:04:01;10.00;25.60
480;DHT22;226;48.606;9.096;2022-12-29T08:06:29;10.00;24.50
480;DHT22;226;48.606;9.096;2022-12-29T08:08:57;10.10;24.50
480;DHT22;226;48.606;9.096;2022-12-29T08:11:39;10.10;24.50
480;DHT22;226;48.606;9.096;2022-12-29T08:14:07;10.20;24.60
480;DHT22;226;48.606;9.096;2022-12-29T08:16:35;10.20;24.80
480;DHT22;226;48.606;9.096;2022-12-29T08:19:05;10.30;24.70
480;DHT22;226;48.606;9.096;2022-12-29T08:21:33;10.30;24.20
480;DHT22;226;48.606;9.096;2022-12-29T08:24:02;10.30;24.20
480;DHT22;226;48.606;9.096;2022-12-29T08:26:30;10.30;24.40
480;DHT22;226;48.606;9.096;2022-12-29T08:28:58;10.40;24.10
480;DHT22;226;48.606;9.096;2022-12-29T08:31:26;10.50;23.50
480;DHT22;226;48.606;9.096;2022-12-29T08:33:54;10.60;23.10
480;DHT22;226;48.606;9.096;2022-12-29T08:36:24;10.60;23.40
480;DHT22;226;48.606;9.096;2022-12-29T08:38:52;10.70;23.90
480;DHT22;226;48.606;9.096;2022-12-29T08:41:20;10.70;23.90
480;DHT22;226;48.606;9.096;2022-12-29T08:43:49;10.70;22.70
480;DHT22;226;48.606;9.096;2022-12-29T08:46:17;10.90;22.50
480;DHT22;226;48.606;9.096;2022-12-29T08:48:46;10.70;21.90
480;DHT22;226;48.606;9.096;2022-12-29T08:51:14;10.80;21.20
480;DHT22;226;48.606;9.096;2022-12-29T08:53:52;10.70;22.00
480;DHT22;226;48.606;9.096;2022-12-29T08:56:20;10.70;22.40
480;DHT22;226;48.606;9.096;2022-12-29T08:58:50;10.70;22.20
480;DHT22;226;48.606;9.096;2022-12-29T09:01:18;10.90;22.00
480;DHT22;226;48.606;9.096;2022-12-29T09:03:47;10.70;21.40
480;DHT22;226;48.606;9.096;2022-12-29T09:06:36;10.70;21.10
480;DHT22;226;48.606;9.096;2022-12-29T09:09:08;10.70;20.60
480;DHT22;226;48.606;9.096;2022-12-29T09:11:36;10.70;21.30
480;DHT22;226;48.606;9.096;2022-12-29T09:14:04;10.70;21.40
480;DHT22;226;48.606;9.096;2022-12-29T09:16:33;10.20;21.30
480;DHT22;226;48.606;9.096;2022-12-29T09:19:02;10.70;21.80
480;DHT22;226;48.606;9.096;2022-12-29T09:21:30;11.10;21.50
480;DHT22;226;48.606;9.096;2022-12-29T09:23:58;10.80;20.70
480;DHT22;226;48.606;9.096;2022-12-29T09:26:28;10.90;21.50
480;DHT22;226;48.606;9.096;2022-12-29T09:28:56;11.00;21.50
480;DHT22;226;48.606;9.096;2022-12-29T09:31:24;11.10;20.90
480;DHT22;226;48.606;9.096;2022-12-29T09:33:53;11.10;20.90
480;DHT22;226;48.606;9.096;2022-12-29T09:36:21;11.50;21.30
480;DHT22;226;48.606;9.096;2022-12-29T09:38:49;11.30;21.10
480;DHT22;226;48.606;9.096;2022-12-29T09:41:20;11.60;20.60
480;DHT22;226;48.606;9.096;2022-12-29T09:44:03;10.90;20.10
480;DHT22;226;48.606;9.096;2022-12-29T09:46:36;11.50;21.20
480;DHT22;226;48.606;9.096;2022-12-29T09:49:19;11.50;21.30
480;DHT22;226;48.606;9.096;2022-12-29T09:51:52;11.70;21.00
480;DHT22;226;48.606;9.096;2022-12-29T09:54:39;11.30;20.10
480;DHT22;226;48.606;9.096;2022-12-29T09:57:20;11.80;21.00
480;DHT22;226;48.606;9.096;2022-12-29T09:59:55;12.10;21.60
480;DHT22;226;48.606;9.096;2022-12-29T10:02:34;11.80;21.50
480;DHT22;226;48.606;9.096;2022-12-29T10:05:14;11.80;21.40
480;DHT22;226;48.606;9.096;2022-12-29T10:07:52;11.70;21.30
480;DHT22;226;48.606;9.096;2022-12-29T10:10:32;11.70;21.30
480;DHT22;226;48.606;9.096;2022-12-29T10:13:09;11.80;21.40
480;DHT22;226;48.606;9.096;2022-12-29T10:15:50;11.90;21.50
480;DHT22;226;48.606;9.096;2022-12-29T10:19:04;11.70;21.60
480;DHT22;226;48.606;9.096;2022-12-29T10:21:46;11.60;22.20
480;DHT22;226;48.606;9.096;2022-12-29T10:24:21;11.70;21.70
480;DHT22;226;48.606;9.096;2022-12-29T10:26:51;11.50;22.20
480;DHT22;226;48.606;9.096;2022-12-29T10:29:21;11.70;21.70
480;DHT22;226;48.606;9.096;2022-12-29T10:31:57;11.70;22.30
480;DHT22;226;48.606;9.096;2022-12-29T10:34:29;11.70;22.40
480;DHT22;226;48.606;9.096;2022-12-29T10:37:04;11.70;22.30
480;DHT22;226;48.606;9.096;2022-12-29T10:39:38;11.70;22.10
480;DHT22;226;48.606;9.096;2022-12-29T10:42:13;11.30;22.00
480;DHT22;226;48.606;9.096;2022-12-29T10:44:43;11.80;22.30
480;DHT22;226;48.606;9.096;2022-12-29T10:47:16;11.60;22.00
480;DHT22;226;48.606;9.096;2022-12-29T10:49:47;11.70;22.80
480;DHT22;226;48.606;9.096;2022-12-29T10:52:17;11.60;23.00
480;DHT22;226;48.606;9.096;2022-12-29T10:54:50;11.40;22.10
480;DHT22;226;48.606;9.096;2022-12-29T10:57:26;11.60;22.10
480;DHT22;226;48.606;9.096;2022-12-29T10:59:55;11.80;23.20
480;DHT22;226;48.606;9.096;2022-12-29T11:05:23;11.90;22.20
480;DHT22;226;48.606;9.096;2022-12-29T11:07:56;11.90;21.90
480;DHT22;226;48.606;9.096;2022-12-29T11:10:35;12.00;21.80
480;DHT22;226;48.606;9.096;2022-12-29T11:13:11;12.10;21.90
480;DHT22;226;48.606;9.096;2022-12-29T11:15:41;12.20;21.70
480;DHT22;226;48.606;9.096;2022-12-29T11:18:22;12.20;22.40
480;DHT22;226;48.606;9.096;2022-12-29T11:20:52;12.20;22.20
480;DHT22;226;48.606;9.096;2022-12-29T11:23:24;12.20;23.20
480;DHT22;226;48.606;9.096;2022-12-29T11:26:16;12.20;22.50
480;DHT22;226;48.606;9.096;2022-12-29T11:28:46;12.20;23.00
480;DHT22;226;48.606;9.096;2022-12-29T11:31:18;12.10;24.90
480;DHT22;226;48.606;9.096;2022-12-29T11:33:51;12.30;23.50
480;DHT22;226;48.606;9.096;2022-12-29T11:36:21;12.10;25.80
480;DHT22;226;48.606;9.096;2022-12-29T11:38:52;12.00;25.40
480;DHT22;226;48.606;9.096;2022-12-29T11:41:23;11.90;26.00
480;DHT22;226;48.606;9.096;2022-12-29T11:43:54;11.90;26.30
480;DHT22;226;48.606;9.096;2022-12-29T11:46:26;12.30;27.70
480;DHT22;226;48.606;9.096;2022-12-29T11:48:56;11.80;28.20
480;DHT22;226;48.606;9.096;2022-12-29T11:51:29;11.80;27.30
480;DHT22;226;48.606;9.096;2022-12-29T11:54:00;11.90;27.50
480;DHT22;226;48.606;9.096;2022-12-29T11:56:34;11.90;28.30
480;DHT22;226;48.606;9.096;2022-12-29T12:02:31;11.70;29.10
480;DHT22;226;48.606;9.096;2022-12-29T12:05:22;11.60;29.40
480;DHT22;226;48.606;9.096;2022-12-29T12:07:57;11.50;30.20
480;DHT22;226;48.606;9.096;2022-12-29T12:10:31;11.60;30.70
480;DHT22;226;48.606;9.096;2022-12-29T12:13:08;11.50;30.30
480;DHT22;226;48.606;9.096;2022-12-29T12:15:46;11.30;30.40
480;DHT22;226;48.606;9.096;2022-12-29T12:18:38;11.70;32.30
480;DHT22;226;48.606;9.096;2022-12-29T12:21:14;11.50;31.70
480;DHT22;226;48.606;9.096;2022-12-29T12:24:11;11.90;34.90
480;DHT22;226;48.606;9.096;2022-12-29T12:26:55;11.60;33.20
480;DHT22;226;48.606;9.096;2022-12-29T12:29:32;11.60;34.30
480;DHT22;226;48.606;9.096;2022-12-29T12:32:09;11.80;33.90
480;DHT22;226;48.606;9.096;2022-12-29T12:34:41;11.90;32.10
480;DHT22;226;48.606;9.096;2022-12-29T12:40:34;11.90;32.00
480;DHT22;226;48.606;9.096;2022-12-29T12:43:19;11.80;32.50
480;DHT22;226;48.606;9.096;2022-12-29T12:46:05;11.80;31.30
480;DHT22;226;48.606;9.096;2022-12-29T12:48:49;11.70;33.00
480;DHT22;226;48.606;9.096;2022-12-29T12:51:28;11.40;33.30
480;DHT22;226;48.606;9.096;2022-12-29T12:54:07;11.60;33.20
480;DHT22;226;48.606;9.096;2022-12-29T12:56:51;11.60;33.70
480;DHT22;226;48.606;9.096;2022-12-29T12:59:33;11.60;33.70
480;DHT22;226;48.606;9.096;2022-12-29T13:02:13;12.00;34.40
480;DHT22;226;48.606;9.096;2022-12-29T13:07:42;12.20;35.20
480;DHT22;226;48.606;9.096;2022-12-29T13:10:32;11.70;31.40
480;DHT22;226;48.606;9.096;2022-12-29T13:13:20;11.70;32.50
480;DHT22;226;48.606;9.096;2022-12-29T13:15:57;11.60;32.80
480;DHT22;226;48.606;9.096;2022-12-29T13:18:33;11.60;32.50
480;DHT22;226;48.606;9.096;2022-12-29T13:21:25;11.60;32.50
480;DHT22;226;48.606;9.096;2022-12-29T13:23:59;11.60;32.80
480;DHT22;226;48.606;9.096;2022-12-29T13:26:32;11.60;32.40
480;DHT22;226;48.606;9.096;2022-12-29T13:29:14;12.20;33.10
480;DHT22;226;48.606;9.096;2022-12-29T13:31:49;11.70;32.90
480;DHT22;226;48.606;9.096;2022-12-29T13:34:26;12.00;33.90
480;DHT22;226;48.606;9.096;2022-12-29T13:37:01;11.70;33.20
480;DHT22;226;48.606;9.096;2022-12-29T13:39:34;11.80;33.80
480;DHT22;226;48.606;9.096;2022-12-29T13:42:04;11.80;33.80
480;DHT22;226;48.606;9.096;2022-12-29T13:44:37;11.80;32.70
480;DHT22;226;48.606;9.096;2022-12-29T13:47:17;12.10;33.10
480;DHT22;226;48.606;9.096;2022-12-29T13:49:48;12.00;32.00
480;DHT22;226;48.606;9.096;2022-12-29T13:52:23;12.00;32.00
480;DHT22;226;48.606;9.096;2022-12-29T13:54:58;12.00;32.50
480;DHT22;226;48.606;9.096;2022-12-29T13:57:37;12.00;32.20
480;DHT22;226;48.606;9.096;2022-12-29T14:00:15;12.00;30.30
480;DHT22;226;48.606;9.096;2022-12-29T14:02:58;12.00;31.70
480;DHT22;226;48.606;9.096;2022-12-29T14:05:31;12.70;31.30
480;DHT22;226;48.606;9.096;2022-12-29T14:08:01;12.10;31.80
480;DHT22;226;48.606;9.096;2022-12-29T14:10:33;12.20;32.00
480;DHT22;226;48.606;9.096;2022-12-29T14:13:05;12.30;31.20
480;DHT22;226;48.606;9.096;2022-12-29T14:15:38;12.40;30.90
480;DHT22;226;48.606;9.096;2022-12-29T14:18:15;12.20;30.10
480;DHT22;226;48.606;9.096;2022-12-29T14:20:55;12.10;30.00
480;DHT22;226;48.606;9.096;2022-12-29T14:23:35;12.00;30.00
480;DHT22;226;48.606;9.096;2022-12-29T14:26:13;11.90;29.90
480;DHT22;226;48.606;9.096;2022-12-29T14:28:43;11.80;30.70
480;DHT22;226;48.606;9.096;2022-12-29T14:31:35;11.70;31.10
480;DHT22;226;48.606;9.096;2022-12-29T14:34:30;11.80;31.50
480;DHT22;226;48.606;9.096;2022-12-29T14:37:22;11.70;31.60
480;DHT22;226;48.606;9.096;2022-12-29T14:40:03;11.80;31.90
480;DHT22;226;48.606;9.096;2022-12-29T14:42:32;11.60;31.50
480;DHT22;226;48.606;9.096;2022-12-29T14:45:03;11.50;31.70
480;DHT22;226;48.606;9.096;2022-12-29T14:47:37;11.50;31.40
480;DHT22;226;48.606;9.096;2022-12-29T14:50:12;11.40;31.10
480;DHT22;226;48.606;9.096;2022-12-29T14:52:46;11.40;31.20
480;DHT22;226;48.606;9.096;2022-12-29T14:55:37;11.50;31.90
480;DHT22;226;48.606;9.096;2022-12-29T14:58:12;11.30;32.00
480;DHT22;226;48.606;9.096;2022-12-29T15:00:42;11.40;30.80
480;DHT22;226;48.606;9.096;2022-12-29T15:03:18;11.20;31.40
480;DHT22;226;48.606;9.096;2022-12-29T15:05:51;11.10;30.50
480;DHT22;226;48.606;9.096;2022-12-29T15:08:22;11.10;31.00
480;DHT22;226;48.606;9.096;2022-12-29T15:10:55;11.20;30.30
480;DHT22;226;48.606;9.096;2022-12-29T15:13:32;11.20;30.80
480;DHT22;226;48.606;9.096;2022-12-29T15:16:00;10.00;29.70
480;DHT22;226;48.606;9.096;2022-12-29T15:18:32;11.80;30.50
480;DHT22;226;48.606;9.096;2022-12-29T15:21:05;11.20;29.10
480;DHT22;226;48.606;9.096;2022-12-29T15:23:35;11.20;30.00
480;DHT22;226;48.606;9.096;2022-12-29T15:26:06;11.40;29.80
480;DHT22;226;48.606;9.096;2022-12-29T15:28:39;11.60;32.80
480;DHT22;226;48.606;9.096;2022-12-29T15:31:12;11.10;28.40
480;DHT22;226;48.606;9.096;2022-12-29T15:33:44;11.30;28.60
480;DHT22;226;48.606;9.096;2022-12-29T15:36:18;11.20;27.60
480;DHT22;226;48.606;9.096;2022-12-29T15:38:48;11.30;27.90
480;DHT22;226;48.606;9.096;2022-12-29T15:41:25;11.90;27.50
480;DHT22;226;48.606;9.096;2022-12-29T15:44:07;11.40;27.00
480;DHT22;226;48.606;9.096;2022-12-29T15:46:38;11.50;26.90
480;DHT22;226;48.606;9.096;2022-12-29T15:49:09;11.50;26.50
480;DHT22;226;48.606;9.096;2022-12-29T15:51:38;11.60;26.00
480;DHT22;226;48.606;9.096;2022-12-29T15:54:15;11.50;25.80
480;DHT22;226;48.606;9.096;2022-12-29T15:56:45;11.50;25.60
480;DHT22;226;48.606;9.096;2022-12-29T15:59:24;11.50;25.80
480;DHT22;226;48.606;9.096;2022-12-29T16:01:53;11.90;26.30
480;DHT22;226;48.606;9.096;2022-12-29T16:04:24;11.40;25.40
480;DHT22;226;48.606;9.096;2022-12-29T16:06:58;11.40;25.50
480;DHT22;226;48.606;9.096;2022-12-29T16:09:30;11.40;25.40
480;DHT22;226;48.606;9.096;2022-12-29T16:12:01;11.40;25.40
480;DHT22;226;48.606;9.096;2022-12-29T16:14:33;11.50;25.50
480;DHT22;226;48.606;9.096;2022-12-29T16:17:04;11.40;25.60
480;DHT22;226;48.606;9.096;2022-12-29T16:19:36;11.50;25.60
480;DHT22;226;48.606;9.096;2022-12-29T16:22:11;11.50;25.40
480;DHT22;226;48.606;9.096;2022-12-29T16:24:40;11.50;25.50
480;DHT22;226;48.606;9.096;2022-12-29T16:27:10;11.40;25.50
480;DHT22;226;48.606;9.096;2022-12-29T16:29:42;11.10;25.20
480;DHT22;226;48.606;9.096;2022-12-29T16:32:24;11.50;25.70
480;DHT22;226;48.606;9.096;2022-12-29T16:35:12;11.50;25.40
480;DHT22;226;48.606;9.096;2022-12-29T16:37:41;11.50;25.40
480;DHT22;226;48.606;9.096;2022-12-29T16:40:37;11.40;25.80
480;DHT22;226;48.606;9.096;2022-12-29T16:43:20;11.40;27.00
480;DHT22;226;48.606;9.096;2022-12-29T16:48:53;11.40;25.60
480;DHT22;226;48.606;9.096;2022-12-29T16:51:29;11.40;25.80
480;DHT22;226;48.606;9.096;2022-12-29T16:53:59;11.40;26.20
480;DHT22;226;48.606;9.096;2022-12-29T16:56:29;11.40;26.50
480;DHT22;226;48.606;9.096;2022-12-29T16:59:02;11.10;26.60
480;DHT22;226;48.606;9.096;2022-12-29T17:01:31;11.50;26.30
480;DHT22;226;48.606;9.096;2022-12-29T17:04:01;11.50;26.00
480;DHT22;226;48.606;9.096;2022-12-29T17:06:34;11.80;26.60
480;DHT22;226;48.606;9.096;2022-12-29T17:09:10;11.70;26.80
480;DHT22;226;48.606;9.096;2022-12-29T17:11:43;11.40;26.50
480;DHT22;226;48.606;9.096;2022-12-29T17:14:40;11.20;26.40
480;DHT22;226;48.606;9.096;2022-12-29T17:17:18;11.00;27.10
480;DHT22;226;48.606;9.096;2022-12-29T17:19:50;11.20;27.30
480;DHT22;226;48.606;9.096;2022-12-29T17:22:22;11.10;27.70
480;DHT22;226;48.606;9.096;2022-12-29T17:24:52;11.10;27.90
480;DHT22;226;48.606;9.096;2022-12-29T17:27:24;11.00;28.30
480;DHT22;226;48.606;9.096;2022-12-29T17:29:55;11.00;27.80
480;DHT22;226;48.606;9.096;2022-12-29T17:32:24;11.20;28.40
480;DHT22;226;48.606;9.096;2022-12-29T17:34:52;10.70;28.10
480;DHT22;226;48.606;9.096;2022-12-29T17:37:32;10.70;29.10
480;DHT22;226;48.606;9.096;2022-12-29T17:40:01;10.50;29.30
480;DHT22;226;48.606;9.096;2022-12-29T17:42:29;10.40;30.60
480;DHT22;226;48.606;9.096;2022-12-29T17:45:00;10.30;32.00
480;DHT22;226;48.606;9.096;2022-12-29T17:47:28;10.80;34.20